createdAt,value
2023-05-01T00:00:09.188Z,1349.00
2023-05-01T00:01:09.220Z,1373.00
2023-05-01T00:02:09.263Z,1371.00
2023-05-01T00:03:09.379Z,1383.00
2023-05-01T00:04:09.515Z,1389.00
2023-05-01T00:05:09.510Z,1399.00
2023-05-01T00:06:09.530Z,1397.00
2023-05-01T00:07:09.520Z,1340.00
2023-05-01T00:08:09.550Z,1314.00
2023-05-01T00:09:09.592Z,1285.00
2023-05-01T00:10:09.623Z,1254.00
2023-05-01T00:11:09.682Z,1243.00
2023-05-01T00:12:09.749Z,1243.00
2023-05-01T00:13:09.760Z,1225.00
2023-05-01T00:14:09.768Z,1210.00
2023-05-01T00:15:09.825Z,1225.00
2023-05-01T00:16:09.916Z,1178.00
2023-05-01T00:17:09.876Z,1143.00
2023-05-01T00:18:09.926Z,1178.00
2023-05-01T00:19:09.929Z,1226.00
2023-05-01T00:20:09.908Z,1247.00
2023-05-01T00:21:09.934Z,1267.00
2023-05-01T00:22:09.968Z,1288.00
2023-05-01T00:23:09.971Z,1240.00
2023-05-01T00:24:10.017Z,1235.00
2023-05-01T00:25:09.967Z,1231.00
2023-05-01T00:26:09.960Z,1215.00
2023-05-01T00:27:09.982Z,1191.00
2023-05-01T00:28:10.020Z,1171.00
2023-05-01T00:29:10.052Z,1131.00
2023-05-01T00:30:10.039Z,1124.00
2023-05-01T00:31:10.036Z,1128.00
2023-05-01T00:32:10.216Z,1133.00
2023-05-01T00:33:10.170Z,1153.00
2023-05-01T00:34:10.078Z,1127.00
2023-05-01T00:35:10.112Z,1132.00
2023-05-01T00:36:10.099Z,1130.00
2023-05-01T00:37:10.107Z,1157.00
2023-05-01T00:38:10.124Z,1164.00
2023-05-01T00:39:10.127Z,1182.00
2023-05-01T00:40:10.135Z,1218.00
2023-05-01T00:41:10.121Z,1219.00
2023-05-01T00:42:10.152Z,1185.00
2023-05-01T00:43:10.138Z,1164.00
2023-05-01T00:44:10.200Z,1187.00
2023-05-01T00:45:10.211Z,1224.00
2023-05-01T00:46:10.241Z,1244.00
2023-05-01T00:47:10.239Z,1268.00
2023-05-01T00:48:10.389Z,1304.00
2023-05-01T00:49:10.280Z,1351.00
2023-05-01T00:50:10.299Z,1373.00
2023-05-01T00:51:10.322Z,1346.00
2023-05-01T00:52:10.357Z,1347.00
2023-05-01T00:53:10.372Z,1354.00
2023-05-01T00:54:10.362Z,1343.00
2023-05-01T00:55:10.380Z,1319.00
2023-05-01T00:56:10.426Z,1296.00
2023-05-01T00:57:10.489Z,1302.00
2023-05-01T00:58:10.502Z,1280.00
2023-05-01T00:59:10.526Z,1257.00
2023-05-01T01:00:10.567Z,1241.00
2023-05-01T01:01:10.608Z,1260.00
2023-05-01T01:02:10.609Z,1271.00
2023-05-01T01:03:10.702Z,1313.00
2023-05-01T01:04:10.743Z,1342.00
2023-05-01T01:05:10.694Z,1343.00
2023-05-01T01:06:10.820Z,1347.00
2023-05-01T01:07:10.751Z,1365.00
2023-05-01T01:08:10.819Z,1401.00
2023-05-01T01:09:10.846Z,1396.00
2023-05-01T01:10:10.882Z,1415.00
2023-05-01T01:11:10.907Z,1435.00
2023-05-01T01:12:10.958Z,1397.00
2023-05-01T01:13:10.985Z,1322.00
2023-05-01T01:14:11.004Z,1310.00
2023-05-01T01:15:11.071Z,1332.00
2023-05-01T01:16:11.109Z,1330.00
2023-05-01T01:17:11.157Z,1328.00
2023-05-01T01:18:11.210Z,1328.00
2023-05-01T01:19:11.171Z,1309.00
2023-05-01T01:20:11.230Z,1312.00
2023-05-01T01:21:11.237Z,1334.00
2023-05-01T01:22:11.298Z,1373.00
2023-05-01T01:23:11.320Z,1383.00
2023-05-01T01:24:11.338Z,1402.00
2023-05-01T01:25:11.397Z,1460.00
2023-05-01T01:26:11.408Z,1481.00
2023-05-01T01:27:11.432Z,1511.00
2023-05-01T01:28:11.473Z,1556.00
2023-05-01T01:29:11.536Z,1576.00
2023-05-01T01:30:11.514Z,1587.00
2023-05-01T01:31:11.590Z,1595.00
2023-05-01T01:32:11.567Z,1602.00
2023-05-01T01:33:11.627Z,1623.00
2023-05-01T01:34:11.635Z,1638.00
2023-05-01T01:35:11.674Z,1646.00
2023-05-01T01:36:11.699Z,1658.00
2023-05-01T01:37:11.757Z,1636.00
2023-05-01T01:38:11.707Z,1651.00
2023-05-01T01:39:11.745Z,1666.00
2023-05-01T01:40:11.757Z,1656.00
2023-05-01T01:41:11.758Z,1674.00
2023-05-01T01:42:11.780Z,1689.00
2023-05-01T01:43:11.822Z,1738.00
2023-05-01T01:44:12.042Z,1771.00
2023-05-01T01:45:11.894Z,1786.00
2023-05-01T01:46:11.961Z,1805.00
2023-05-01T01:47:11.932Z,1833.00
2023-05-01T01:48:11.989Z,1873.00
2023-05-01T01:49:11.966Z,1903.00
2023-05-01T01:50:11.985Z,1941.00
2023-05-01T01:51:12.026Z,1955.00
2023-05-01T01:52:12.016Z,1965.00
2023-05-01T01:53:12.105Z,1967.00
2023-05-01T01:54:12.098Z,1986.00
2023-05-01T01:55:12.149Z,1997.00
2023-05-01T01:56:12.173Z,2016.00
2023-05-01T01:57:12.165Z,2046.00
2023-05-01T01:58:12.188Z,2065.00
2023-05-01T01:59:12.188Z,2056.00
2023-05-01T02:00:12.243Z,2084.00
2023-05-01T02:01:12.305Z,2104.00
2023-05-01T02:02:12.362Z,2110.00
2023-05-01T02:03:12.433Z,2140.00
2023-05-01T02:04:12.370Z,2142.00
2023-05-01T02:05:12.387Z,2151.00
2023-05-01T02:06:12.444Z,2155.00
2023-05-01T02:07:12.467Z,2163.00
2023-05-01T02:08:12.510Z,2161.00
2023-05-01T02:09:12.546Z,2186.00
2023-05-01T02:10:12.586Z,2203.00
2023-05-01T02:11:12.609Z,2213.00
2023-05-01T02:12:12.668Z,2226.00
2023-05-01T02:13:12.667Z,2215.00
2023-05-01T02:14:12.729Z,2233.00
2023-05-01T02:15:12.753Z,2221.00
2023-05-01T02:16:12.913Z,2208.00
2023-05-01T02:17:12.853Z,2198.00
2023-05-01T02:18:12.889Z,2183.00
2023-05-01T02:19:12.930Z,2184.00
2023-05-01T02:20:12.948Z,2176.00
2023-05-01T02:21:12.961Z,2167.00
2023-05-01T02:22:13.023Z,2168.00
2023-05-01T02:23:13.072Z,2145.00
2023-05-01T02:24:13.105Z,2173.00
2023-05-01T02:25:13.153Z,2196.00
2023-05-01T02:26:13.221Z,2203.00
2023-05-01T02:27:13.219Z,2224.00
2023-05-01T02:28:13.265Z,2202.00
2023-05-01T02:29:13.310Z,2201.00
2023-05-01T02:30:13.370Z,2220.00
2023-05-01T02:31:13.415Z,2216.00
2023-05-01T02:32:13.575Z,2214.00
2023-05-01T02:33:13.502Z,2224.00
2023-05-01T02:34:13.629Z,2195.00
2023-05-01T02:35:13.596Z,2210.00
2023-05-01T02:36:13.648Z,2200.00
2023-05-01T02:37:13.699Z,2200.00
2023-05-01T02:38:13.735Z,2206.00
2023-05-01T02:39:13.804Z,2203.00
2023-05-01T02:40:13.858Z,2183.00
2023-05-01T02:41:13.908Z,2177.00
2023-05-01T02:42:13.962Z,2167.00
2023-05-01T02:43:13.976Z,2141.00
2023-05-01T02:44:14.018Z,2114.00
2023-05-01T02:45:14.053Z,2078.00
2023-05-01T02:46:14.158Z,2048.00
2023-05-01T02:47:14.202Z,2037.00
2023-05-01T02:48:14.245Z,2023.00
2023-05-01T02:49:14.241Z,2024.00
2023-05-01T02:50:14.997Z,2021.00
2023-05-01T02:51:14.358Z,2025.00
2023-05-01T02:52:14.411Z,2040.00
2023-05-01T02:53:14.431Z,2018.00
2023-05-01T02:54:14.516Z,2003.00
2023-05-01T02:55:14.535Z,2009.00
2023-05-01T02:56:14.559Z,1989.00
2023-05-01T02:57:14.608Z,2009.00
2023-05-01T02:58:14.648Z,1981.00
2023-05-01T02:59:14.695Z,1984.00
2023-05-01T03:00:14.775Z,1983.00
2023-05-01T03:01:14.887Z,2006.00
2023-05-01T03:02:14.853Z,2020.00
2023-05-01T03:03:15.035Z,2051.00
2023-05-01T03:04:15.042Z,2075.00
2023-05-01T03:05:14.981Z,2104.00
2023-05-01T03:06:15.084Z,2112.00
2023-05-01T03:07:15.099Z,2150.00
2023-05-01T03:08:15.126Z,2144.00
2023-05-01T03:09:15.146Z,2168.00
2023-05-01T03:10:15.171Z,2170.00
2023-05-01T03:11:15.209Z,2172.00
2023-05-01T03:12:15.266Z,2181.00
2023-05-01T03:13:15.314Z,2170.00
2023-05-01T03:14:15.333Z,2180.00
2023-05-01T03:15:15.381Z,2177.00
2023-05-01T03:16:15.530Z,2152.00
2023-05-01T03:17:15.518Z,2167.00
2023-05-01T03:18:15.540Z,2140.00
2023-05-01T03:19:15.592Z,2148.00
2023-05-01T03:20:15.655Z,2143.00
2023-05-01T03:21:15.702Z,2141.00
2023-05-01T03:22:15.727Z,2142.00
2023-05-01T03:23:15.801Z,2125.00
2023-05-01T03:24:15.892Z,2104.00
2023-05-01T03:25:15.927Z,2103.00
2023-05-01T03:26:15.914Z,2095.00
2023-05-01T03:27:15.974Z,2117.00
2023-05-01T03:28:16.006Z,2103.00
2023-05-01T03:29:16.061Z,2142.00
2023-05-01T03:30:16.140Z,2132.00
2023-05-01T03:31:16.171Z,2103.00
2023-05-01T03:32:16.242Z,2081.00
2023-05-01T03:33:16.308Z,2101.00
2023-05-01T03:34:16.309Z,2112.00
2023-05-01T03:35:16.421Z,2122.00
2023-05-01T03:36:16.448Z,2141.00
2023-05-01T03:37:16.471Z,2112.00
2023-05-01T03:38:16.520Z,2114.00
2023-05-01T03:39:16.550Z,2095.00
2023-05-01T03:40:16.613Z,2086.00
2023-05-01T03:41:16.629Z,2105.00
2023-05-01T03:42:16.685Z,2107.00
2023-05-01T03:43:16.734Z,2112.00
2023-05-01T03:44:16.804Z,2120.00
2023-05-01T03:45:16.865Z,2103.00
2023-05-01T03:46:16.973Z,2124.00
2023-05-01T03:47:16.962Z,2116.00
2023-05-01T03:48:16.988Z,2127.00
2023-05-01T03:49:17.076Z,2123.00
2023-05-01T03:50:17.077Z,2136.00
2023-05-01T03:51:17.147Z,2150.00
2023-05-01T03:52:17.213Z,2140.00
2023-05-01T03:53:17.274Z,2147.00
2023-05-01T03:54:17.317Z,2147.00
2023-05-01T03:55:17.328Z,2151.00
2023-05-01T03:56:17.382Z,2141.00
2023-05-01T03:57:17.488Z,2152.00
2023-05-01T03:58:17.526Z,2151.00
2023-05-01T03:59:17.563Z,2184.00
2023-05-01T04:00:17.630Z,2215.00
2023-05-01T04:01:17.684Z,2250.00
2023-05-01T04:02:17.786Z,2272.00
2023-05-01T04:03:17.903Z,2290.00
2023-05-01T04:04:17.863Z,2280.00
2023-05-01T04:05:17.900Z,2271.00
2023-05-01T04:06:18.007Z,2270.00
2023-05-01T04:07:18.036Z,2261.00
2023-05-01T04:08:18.073Z,2270.00
2023-05-01T04:09:18.150Z,2280.00
2023-05-01T04:10:18.204Z,2282.00
2023-05-01T04:11:18.224Z,2301.00
2023-05-01T04:12:18.284Z,2298.00
2023-05-01T04:13:18.324Z,2314.00
2023-05-01T04:14:18.368Z,2327.00
2023-05-01T04:15:18.422Z,2320.00
2023-05-01T04:16:18.561Z,2317.00
2023-05-01T04:17:18.574Z,2309.00
2023-05-01T04:18:18.608Z,2310.00
2023-05-01T04:19:18.635Z,2307.00
2023-05-01T04:20:18.689Z,2315.00
2023-05-01T04:21:18.768Z,2301.00
2023-05-01T04:22:18.816Z,2288.00
2023-05-01T04:23:18.864Z,2261.00
2023-05-01T04:24:18.902Z,2268.00
2023-05-01T04:25:18.967Z,2257.00
2023-05-01T04:26:19.003Z,2254.00
2023-05-01T04:27:19.082Z,2271.00
2023-05-01T04:28:19.128Z,2273.00
2023-05-01T04:29:19.180Z,2273.00
2023-05-01T04:30:19.212Z,2296.00
2023-05-01T04:31:19.306Z,2289.00
2023-05-01T04:32:19.352Z,2298.00
2023-05-01T04:33:19.371Z,2303.00
2023-05-01T04:34:19.443Z,2301.00
2023-05-01T04:35:19.494Z,2327.00
2023-05-01T04:36:19.533Z,2315.00
2023-05-01T04:37:19.617Z,2329.00
2023-05-01T04:38:19.646Z,2330.00
2023-05-01T04:39:19.717Z,2332.00
2023-05-01T04:40:19.797Z,2331.00
2023-05-01T04:41:19.843Z,2342.00
2023-05-01T04:42:19.921Z,2346.00
2023-05-01T04:43:19.927Z,2327.00
2023-05-01T04:44:19.989Z,2343.00
2023-05-01T04:45:20.040Z,2353.00
2023-05-01T04:46:20.108Z,2389.00
2023-05-01T04:47:20.128Z,2362.00
2023-05-01T04:48:20.219Z,2342.00
2023-05-01T04:49:20.249Z,2347.00
2023-05-01T04:50:20.316Z,2332.00
2023-05-01T04:51:20.468Z,2307.00
2023-05-01T04:52:20.403Z,2324.00
2023-05-01T04:53:20.467Z,2325.00
2023-05-01T04:54:20.497Z,2317.00
2023-05-01T04:55:20.558Z,2343.00
2023-05-01T04:56:20.613Z,2347.00
2023-05-01T04:57:20.639Z,2363.00
2023-05-01T04:58:20.710Z,2328.00
2023-05-01T04:59:20.782Z,2364.00
2023-05-01T05:00:20.807Z,2337.00
2023-05-01T05:01:20.873Z,2350.00
2023-05-01T05:02:20.988Z,2336.00
2023-05-01T05:03:21.028Z,2328.00
2023-05-01T05:04:20.983Z,2348.00
2023-05-01T05:05:21.047Z,2347.00
2023-05-01T05:06:21.175Z,2343.00
2023-05-01T05:07:21.185Z,2323.00
2023-05-01T05:08:21.204Z,2317.00
2023-05-01T05:09:21.264Z,2314.00
2023-05-01T05:10:21.336Z,2291.00
2023-05-01T05:11:21.385Z,2291.00
2023-05-01T05:12:21.443Z,2268.00
2023-05-01T05:13:21.489Z,2265.00
2023-05-01T05:14:21.558Z,2260.00
2023-05-01T05:15:21.580Z,2270.00
2023-05-01T05:16:21.662Z,2269.00
2023-05-01T05:17:21.661Z,2288.00
2023-05-01T05:18:21.774Z,2255.00
2023-05-01T05:19:21.795Z,2229.00
2023-05-01T05:20:21.852Z,2206.00
2023-05-01T05:21:21.900Z,2222.00
2023-05-01T05:22:21.932Z,2192.00
2023-05-01T05:23:21.966Z,2157.00
2023-05-01T05:24:21.966Z,2175.00
2023-05-01T05:25:21.984Z,2153.00
2023-05-01T05:26:21.976Z,2151.00
2023-05-01T05:27:22.015Z,2160.00
2023-05-01T05:28:22.205Z,2150.00
2023-05-01T05:29:22.028Z,2151.00
2023-05-01T05:30:22.082Z,2178.00
2023-05-01T05:31:22.093Z,2184.00
2023-05-01T05:32:22.231Z,2196.00
2023-05-01T05:33:22.143Z,2192.00
2023-05-01T05:34:22.170Z,2205.00
2023-05-01T05:35:22.244Z,2207.00
2023-05-01T05:36:22.253Z,2237.00
2023-05-01T05:37:22.344Z,2241.00
2023-05-01T05:38:22.373Z,2233.00
2023-05-01T05:39:22.436Z,2243.00
2023-05-01T05:40:22.505Z,2253.00
2023-05-01T05:41:22.537Z,2245.00
2023-05-01T05:42:22.611Z,2243.00
2023-05-01T05:43:22.638Z,2253.00
2023-05-01T05:44:22.694Z,2231.00
2023-05-01T05:45:22.751Z,2227.00
2023-05-01T05:46:22.828Z,2259.00
2023-05-01T05:47:22.867Z,2263.00
2023-05-01T05:48:23.140Z,2256.00
2023-05-01T05:49:22.953Z,2262.00
2023-05-01T05:50:23.024Z,2263.00
2023-05-01T05:51:23.082Z,2261.00
2023-05-01T05:52:23.123Z,2269.00
2023-05-01T05:53:25.733Z,2265.00
2023-05-01T05:54:23.166Z,2264.00
2023-05-01T05:55:23.149Z,2250.00
2023-05-01T05:56:23.147Z,2254.00
2023-05-01T05:57:23.168Z,2212.00
2023-05-01T05:58:23.184Z,2245.00
2023-05-01T05:59:23.154Z,2207.00
2023-05-01T06:00:23.165Z,2181.00
2023-05-01T06:01:23.128Z,2161.00
2023-05-01T06:02:23.236Z,2156.00
2023-05-01T06:04:23.094Z,2142.00
2023-05-01T06:05:23.177Z,2150.00
2023-05-01T06:06:23.110Z,2125.00
2023-05-01T06:07:23.075Z,2154.00
2023-05-01T06:08:23.101Z,2137.00
2023-05-01T06:09:23.077Z,2168.00
2023-05-01T06:10:23.044Z,2152.00
2023-05-01T06:11:23.087Z,2147.00
2023-05-01T06:12:23.087Z,2126.00
2023-05-01T06:13:23.079Z,2150.00
2023-05-01T06:14:23.033Z,2130.00
2023-05-01T06:15:23.010Z,2142.00
2023-05-01T06:16:23.033Z,2135.00
2023-05-01T06:17:23.053Z,2145.00
2023-05-01T06:18:23.038Z,2170.00
2023-05-01T06:19:23.013Z,2185.00
2023-05-01T06:20:22.997Z,2237.00
2023-05-01T06:21:23.000Z,2242.00
2023-05-01T06:22:23.004Z,2238.00
2023-05-01T06:23:23.000Z,2259.00
2023-05-01T06:24:22.985Z,2237.00
2023-05-01T06:25:22.941Z,2216.00
2023-05-01T06:26:22.981Z,2205.00
2023-05-01T06:27:22.977Z,2219.00
2023-05-01T06:28:22.931Z,2232.00
2023-05-01T06:29:22.944Z,2223.00
2023-05-01T06:30:22.921Z,2250.00
2023-05-01T06:31:22.960Z,2241.00
2023-05-01T06:32:22.964Z,2245.00
2023-05-01T06:33:22.879Z,2250.00
2023-05-01T06:34:22.897Z,2268.00
2023-05-01T06:35:22.881Z,2282.00
2023-05-01T06:36:22.901Z,2258.00
2023-05-01T06:37:22.951Z,2255.00
2023-05-01T06:38:23.979Z,2248.00
2023-05-01T06:39:23.208Z,2225.00
2023-05-01T06:40:23.227Z,2232.00
2023-05-01T06:41:23.267Z,2224.00
2023-05-01T06:42:23.320Z,2235.00
2023-05-01T06:43:23.322Z,2236.00
2023-05-01T06:44:23.355Z,2236.00
2023-05-01T06:45:23.387Z,2241.00
2023-05-01T06:46:23.409Z,2253.00
2023-05-01T06:47:23.488Z,2258.00
2023-05-01T06:48:23.589Z,2252.00
2023-05-01T06:49:23.522Z,2247.00
2023-05-01T06:50:23.567Z,2237.00
2023-05-01T06:51:23.588Z,2255.00
2023-05-01T06:52:23.628Z,2244.00
2023-05-01T06:53:23.642Z,2220.00
2023-05-01T06:54:23.678Z,2226.00
2023-05-01T06:55:23.672Z,2231.00
2023-05-01T06:56:23.690Z,2251.00
2023-05-01T06:57:23.703Z,2222.00
2023-05-01T06:58:24.580Z,2179.00
2023-05-01T06:59:23.742Z,2162.00
2023-05-01T07:00:23.795Z,2147.00
2023-05-01T07:01:23.860Z,2123.00
2023-05-01T07:02:23.906Z,2127.00
2023-05-01T07:03:23.859Z,2126.00
2023-05-01T07:04:23.865Z,2143.00
2023-05-01T07:05:23.877Z,2130.00
2023-05-01T07:06:23.985Z,2126.00
2023-05-01T07:07:23.960Z,2087.00
2023-05-01T07:08:23.995Z,2065.00
2023-05-01T07:09:23.946Z,2043.00
2023-05-01T07:10:23.983Z,2036.00
2023-05-01T07:11:23.988Z,2057.00
2023-05-01T07:12:24.009Z,2052.00
2023-05-01T07:13:24.059Z,2044.00
2023-05-01T07:14:24.038Z,2026.00
2023-05-01T07:15:24.058Z,2006.00
2023-05-01T07:16:24.181Z,1981.00
2023-05-01T07:17:24.152Z,1998.00
2023-05-01T07:18:24.075Z,2001.00
2023-05-01T07:19:24.100Z,2004.00
2023-05-01T07:20:24.127Z,2001.00
2023-05-01T07:21:24.162Z,2004.00
2023-05-01T07:22:24.146Z,2001.00
2023-05-01T07:23:24.176Z,2002.00
2023-05-01T07:24:24.175Z,2012.00
2023-05-01T07:25:24.166Z,2047.00
2023-05-01T07:26:24.175Z,2013.00
2023-05-01T07:27:24.175Z,2001.00
2023-05-01T07:28:24.205Z,1992.00
2023-05-01T07:29:24.183Z,1981.00
2023-05-01T07:30:24.232Z,1951.00
2023-05-01T07:31:24.261Z,1927.00
2023-05-01T07:32:24.284Z,1883.00
2023-05-01T07:33:24.383Z,1884.00
2023-05-01T07:34:24.327Z,1887.00
2023-05-01T07:35:24.326Z,1938.00
2023-05-01T07:36:24.371Z,1901.00
2023-05-01T07:37:24.372Z,1894.00
2023-05-01T07:38:24.396Z,1878.00
2023-05-01T07:39:24.411Z,1853.00
2023-05-01T07:40:24.427Z,1857.00
2023-05-01T07:41:24.454Z,1882.00
2023-05-01T07:42:24.521Z,1855.00
2023-05-01T07:43:24.555Z,1834.00
2023-05-01T07:44:24.558Z,1851.00
2023-05-01T07:45:24.596Z,1831.00
2023-05-01T07:46:24.675Z,1852.00
2023-05-01T07:47:24.751Z,1837.00
2023-05-01T07:48:24.690Z,1792.00
2023-05-01T07:49:24.717Z,1752.00
2023-05-01T07:50:24.861Z,1742.00
2023-05-01T07:51:24.830Z,1718.00
2023-05-01T07:52:24.914Z,1699.00
2023-05-01T07:53:24.947Z,1701.00
2023-05-01T07:54:24.982Z,1715.00
2023-05-01T07:55:25.008Z,1727.00
2023-05-01T07:56:25.083Z,1758.00
2023-05-01T07:57:25.107Z,1731.00
2023-05-01T07:58:25.187Z,1733.00
2023-05-01T07:59:25.235Z,1791.00
2023-05-01T08:00:25.263Z,1793.00
2023-05-01T08:01:25.339Z,1781.00
2023-05-01T08:02:25.491Z,1795.00
2023-05-01T08:03:25.540Z,1731.00
2023-05-01T08:04:25.520Z,1741.00
2023-05-01T08:05:25.505Z,1793.00
2023-05-01T08:06:25.593Z,1751.00
2023-05-01T08:07:25.594Z,1707.00
2023-05-01T08:08:25.624Z,1677.00
2023-05-01T08:09:25.664Z,1690.00
2023-05-01T08:10:25.711Z,1663.00
2023-05-01T08:11:25.769Z,1623.00
2023-05-01T08:12:25.823Z,1587.00
2023-05-01T08:13:25.850Z,1580.00
2023-05-01T08:14:25.882Z,1544.00
2023-05-01T08:15:25.928Z,1536.00
2023-05-01T08:16:26.023Z,1518.00
2023-05-01T08:17:26.086Z,1484.00
2023-05-01T08:18:26.070Z,1455.00
2023-05-01T08:19:26.087Z,1462.00
2023-05-01T08:20:26.152Z,1484.00
2023-05-01T08:21:26.190Z,1459.00
2023-05-01T08:22:26.244Z,1454.00
2023-05-01T08:23:26.274Z,1463.00
2023-05-01T08:24:26.321Z,1389.00
2023-05-01T08:25:26.354Z,1332.00
2023-05-01T08:26:26.380Z,1301.00
2023-05-01T08:27:26.460Z,1301.00
2023-05-01T08:28:26.467Z,1284.00
2023-05-01T08:29:26.516Z,1268.00
2023-05-01T08:30:26.573Z,1266.00
2023-05-01T08:31:26.636Z,1189.00
2023-05-01T08:32:26.674Z,1210.00
2023-05-01T08:33:26.691Z,1150.00
2023-05-01T08:34:26.725Z,1182.00
2023-05-01T08:35:26.766Z,1172.00
2023-05-01T08:36:26.782Z,1161.00
2023-05-01T08:37:26.843Z,1144.00
2023-05-01T08:38:26.891Z,1123.00
2023-05-01T08:39:26.902Z,1144.00
2023-05-01T08:40:26.949Z,1160.00
2023-05-01T08:41:27.020Z,1186.00
2023-05-01T08:42:27.044Z,1241.00
2023-05-01T08:43:27.055Z,1283.00
2023-05-01T08:44:27.085Z,1241.00
2023-05-01T08:45:27.102Z,1291.00
2023-05-01T08:46:27.190Z,1263.00
2023-05-01T08:47:27.200Z,1221.00
2023-05-01T08:48:27.187Z,1168.00
2023-05-01T08:49:27.198Z,1157.00
2023-05-01T08:50:27.238Z,1104.00
2023-05-01T08:51:27.237Z,1082.00
2023-05-01T08:52:27.291Z,1140.00
2023-05-01T08:53:27.348Z,1166.00
2023-05-01T08:54:27.352Z,1117.00
2023-05-01T08:55:27.360Z,1159.00
2023-05-01T08:56:27.364Z,1175.00
2023-05-01T08:57:27.409Z,1077.00
2023-05-01T08:58:27.422Z,1059.00
2023-05-01T08:59:27.427Z,1040.00
2023-05-01T09:00:27.484Z,983.00
2023-05-01T09:01:27.519Z,1016.00
2023-05-01T09:02:27.519Z,1086.00
2023-05-01T09:03:27.557Z,1016.00
2023-05-01T09:04:27.555Z,1004.00
2023-05-01T09:05:27.565Z,1042.00
2023-05-01T09:06:27.599Z,981.00
2023-05-01T09:07:27.585Z,1010.00
2023-05-01T09:08:27.628Z,1044.00
2023-05-01T09:09:27.629Z,1050.00
2023-05-01T09:10:27.659Z,1075.00
2023-05-01T09:11:27.664Z,1088.00
2023-05-01T09:12:27.774Z,1121.00
2023-05-01T09:13:27.676Z,1126.00
2023-05-01T09:14:27.717Z,1150.00
2023-05-01T09:15:27.739Z,1151.00
2023-05-01T09:16:27.760Z,1207.00
2023-05-01T09:17:27.779Z,1217.00
2023-05-01T09:18:27.768Z,1225.00
2023-05-01T09:19:27.770Z,1235.00
2023-05-01T09:20:27.786Z,1255.00
2023-05-01T09:21:27.812Z,1261.00
2023-05-01T09:22:27.859Z,1245.00
2023-05-01T09:23:27.871Z,1205.00
2023-05-01T09:24:27.869Z,1192.00
2023-05-01T09:25:27.866Z,1226.00
2023-05-01T09:26:27.875Z,1147.00
2023-05-01T09:27:27.934Z,1119.00
2023-05-01T09:28:27.900Z,1118.00
2023-05-01T09:29:27.909Z,1120.00
2023-05-01T09:30:27.912Z,1229.00
2023-05-01T09:31:28.006Z,1309.00
2023-05-01T09:32:28.022Z,1337.00
2023-05-01T09:33:27.986Z,1285.00
2023-05-01T09:34:27.965Z,1199.00
2023-05-01T09:35:27.952Z,1189.00
2023-05-01T09:36:27.997Z,1140.00
2023-05-01T09:37:28.020Z,1138.00
2023-05-01T09:38:28.007Z,1099.00
2023-05-01T09:39:28.016Z,1128.00
2023-05-01T09:40:28.015Z,1145.00
2023-05-01T09:41:28.017Z,1136.00
2023-05-01T09:42:28.034Z,1119.00
2023-05-01T09:43:28.053Z,1125.00
2023-05-01T09:44:28.040Z,1046.00
2023-05-01T09:45:28.047Z,1003.00
2023-05-01T09:46:28.129Z,1057.00
2023-05-01T09:47:28.185Z,1041.00
2023-05-01T09:48:28.076Z,975.00
2023-05-01T09:49:28.108Z,1012.00
2023-05-01T09:50:28.139Z,849.00
2023-05-01T09:51:28.121Z,850.00
2023-05-01T09:52:28.160Z,806.00
2023-05-01T09:53:28.146Z,796.00
2023-05-01T09:54:28.152Z,849.00
2023-05-01T09:55:28.153Z,865.00
2023-05-01T09:56:28.174Z,964.00
2023-05-01T09:57:28.191Z,887.00
2023-05-01T09:58:28.182Z,862.00
2023-05-01T09:59:28.180Z,935.00
2023-05-01T10:00:28.199Z,1012.00
2023-05-01T10:01:28.341Z,1055.00
2023-05-01T10:02:28.325Z,1138.00
2023-05-01T10:03:28.431Z,1133.00
2023-05-01T10:04:28.367Z,1046.00
2023-05-01T10:05:28.409Z,1102.00
2023-05-01T10:06:28.457Z,1128.00
2023-05-01T10:07:28.526Z,1113.00
2023-05-01T10:08:28.557Z,1154.00
2023-05-01T10:09:28.650Z,1117.00
2023-05-01T10:10:28.665Z,1202.00
2023-05-01T10:11:28.701Z,1214.00
2023-05-01T10:12:28.738Z,1138.00
2023-05-01T10:13:28.792Z,1145.00
2023-05-01T10:14:28.890Z,1192.00
2023-05-01T10:15:28.908Z,1280.00
2023-05-01T10:16:28.942Z,1280.00
2023-05-01T10:17:29.004Z,1251.00
2023-05-01T10:18:29.048Z,1287.00
2023-05-01T10:19:29.046Z,1320.00
2023-05-01T10:20:29.089Z,1230.00
2023-05-01T10:21:29.127Z,1228.00
2023-05-01T10:22:29.181Z,1177.00
2023-05-01T10:23:29.224Z,1237.00
2023-05-01T10:24:29.264Z,1288.00
2023-05-01T10:25:29.303Z,1309.00
2023-05-01T10:26:29.335Z,1324.00
2023-05-01T10:27:29.343Z,1312.00
2023-05-01T10:28:29.397Z,1311.00
2023-05-01T10:29:29.414Z,1315.00
2023-05-01T10:30:29.468Z,1333.00
2023-05-01T10:31:29.593Z,1367.00
2023-05-01T10:32:29.539Z,1363.00
2023-05-01T10:33:29.546Z,1379.00
2023-05-01T10:34:29.563Z,1373.00
2023-05-01T10:35:29.598Z,1398.00
2023-05-01T10:36:29.568Z,1404.00
2023-05-01T10:37:29.598Z,1446.00
2023-05-01T10:38:29.652Z,1488.00
2023-05-01T10:39:29.646Z,1531.00
2023-05-01T10:40:29.638Z,1545.00
2023-05-01T10:41:29.675Z,1529.00
2023-05-01T10:42:29.723Z,1570.00
2023-05-01T10:43:29.698Z,1592.00
2023-05-01T10:44:29.684Z,1684.00
2023-05-01T10:45:29.763Z,1842.00
2023-05-01T10:46:29.851Z,1821.00
2023-05-01T10:47:29.769Z,1796.00
2023-05-01T10:48:29.775Z,1846.00
2023-05-01T10:49:29.799Z,1913.00
2023-05-01T10:50:29.794Z,1954.00
2023-05-01T10:51:29.787Z,1979.00
2023-05-01T10:52:29.789Z,1993.00
2023-05-01T10:53:29.796Z,2007.00
2023-05-01T10:54:29.823Z,1994.00
2023-05-01T10:55:29.865Z,1990.00
2023-05-01T10:56:29.905Z,1947.00
2023-05-01T10:57:29.892Z,1948.00
2023-05-01T10:58:29.903Z,1972.00
2023-05-01T10:59:29.932Z,1969.00
2023-05-01T11:00:29.914Z,2007.00
2023-05-01T11:01:30.001Z,2036.00
2023-05-01T11:02:29.978Z,2001.00
2023-05-01T11:03:30.045Z,1973.00
2023-05-01T11:04:30.035Z,2002.00
2023-05-01T11:05:38.197Z,2059.00
2023-05-01T11:06:31.186Z,2011.00
2023-05-01T11:07:30.055Z,1879.00
2023-05-01T11:08:30.063Z,1840.00
2023-05-01T11:09:30.073Z,1780.00
2023-05-01T11:10:30.039Z,1716.00
2023-05-01T11:11:30.045Z,1627.00
2023-05-01T11:12:30.045Z,1535.00
2023-05-01T11:13:30.102Z,1559.00
2023-05-01T11:14:30.033Z,1496.00
2023-05-01T11:15:30.019Z,1450.00
2023-05-01T11:16:30.009Z,1376.00
2023-05-01T11:17:30.093Z,1311.00
2023-05-01T11:18:30.136Z,1295.00
2023-05-01T11:19:30.143Z,1250.00
2023-05-01T11:20:30.200Z,1325.00
2023-05-01T11:21:30.251Z,1299.00
2023-05-01T11:22:30.320Z,1301.00
2023-05-01T11:23:30.374Z,1281.00
2023-05-01T11:24:30.435Z,1299.00
2023-05-01T11:25:30.499Z,1245.00
2023-05-01T11:26:32.386Z,1203.00
2023-05-01T11:27:30.589Z,1126.00
2023-05-01T11:28:30.668Z,1097.00
2023-05-01T11:29:30.724Z,1064.00
2023-05-01T11:30:30.735Z,1150.00
2023-05-01T11:31:30.813Z,1134.00
2023-05-01T11:32:30.908Z,1156.00
2023-05-01T11:33:30.920Z,1174.00
2023-05-01T11:34:30.957Z,1122.00
2023-05-01T11:35:30.996Z,1135.00
2023-05-01T11:36:31.038Z,1080.00
2023-05-01T11:37:31.091Z,1070.00
2023-05-01T11:38:31.118Z,1126.00
2023-05-01T11:39:31.140Z,1108.00
2023-05-01T11:40:31.190Z,1109.00
2023-05-01T11:41:31.266Z,1150.00
2023-05-01T11:42:31.360Z,1001.00
2023-05-01T11:43:31.333Z,925.00
2023-05-01T11:44:31.388Z,980.00
2023-05-01T11:45:31.456Z,1033.00
2023-05-01T11:46:31.585Z,1054.00
2023-05-01T11:47:31.499Z,970.00
2023-05-01T11:48:31.519Z,955.00
2023-05-01T11:49:31.581Z,1096.00
2023-05-01T11:50:31.591Z,1004.00
2023-05-01T11:51:31.658Z,1020.00
2023-05-01T11:52:31.687Z,1067.00
2023-05-01T11:53:31.764Z,935.00
2023-05-01T11:54:31.754Z,878.00
2023-05-01T11:55:31.829Z,873.00
2023-05-01T11:56:31.879Z,808.00
2023-05-01T11:57:31.889Z,794.00
2023-05-01T11:58:31.940Z,843.00
2023-05-01T11:59:32.000Z,902.00
2023-05-01T12:00:31.983Z,903.00
2023-05-01T12:01:32.031Z,911.00
2023-05-01T12:02:32.233Z,931.00
2023-05-01T12:03:32.260Z,825.00
2023-05-01T12:04:32.610Z,826.00
2023-05-01T12:05:32.197Z,848.00
2023-05-01T12:06:32.302Z,813.00
2023-05-01T12:07:32.249Z,847.00